Time;durP1;ratioP1;P1;durP2;ratioP2;P2;SDS_P1;SDS_P2;PMS_P1;PMS_P2;Temp;Humidity;BMP_temperature;BMP_pressure;BME280_temperature;BME280_humidity;BME280_pressure;Samples;Min_cycle;Max_cycle;Signal;HPM_P1;HPM_P2
2021/09/05 00:00:52;;;;;;;;;;;;;;;8.44;71.05;99218.56;5039541;28;20577;-92
2021/09/05 00:03:18;;;;;;;;;;;;;;;8.45;70.95;99225.63;5039147;28;19928;-92
2021/09/05 00:05:45;;;;;;;;;;;;;;;8.49;71.08;99223.13;5038305;28;19975;-89
2021/09/05 00:08:11;;;;;;;;;;;;;;;8.41;71.04;99222.72;5032011;28;19924;-91
2021/09/05 00:10:38;;;;;;;;;;;;;;;8.32;71.25;99229.13;5038751;28;19936;-92
2021/09/05 00:13:04;;;;;;;;;;;;;;;8.33;71.65;99226.06;5021952;28;19974;-93
2021/09/05 00:15:32;;;;;;;;;;;;;;;8.35;71.47;99234.78;5047318;28;20038;-91
2021/09/05 00:17:58;;;;;;;;;;;;;;;8.38;71.73;99222.50;5046066;28;20026;-93
2021/09/05 00:20:24;;;;;;;;;;;;;;;8.42;71.60;99231.69;5062723;28;20034;-92
2021/09/05 00:22:50;;;;;;;;;;;;;;;8.53;70.78;99224.91;5043724;28;20045;-92
2021/09/05 00:25:16;;;;;;;;;;;;;;;8.52;70.92;99223.31;5042702;28;19966;-93
2021/09/05 00:27:42;;;;;;;;;;;;;;;8.54;70.91;99231.97;5042632;28;19977;-93
2021/09/05 00:30:09;;;;;;;;;;;;;;;8.50;70.60;99227.44;5042472;28;20598;-92
2021/09/05 00:32:35;;;;;;;;;;;;;;;8.49;70.68;99229.38;5042383;28;20007;-92
2021/09/05 00:35:02;;;;;;;;;;;;;;;8.46;70.38;99232.69;5042119;28;19924;-93
2021/09/05 00:37:27;;;;;;;;;;;;;;;8.42;70.69;99240.66;5026181;28;19924;-93
2021/09/05 00:39:53;;;;;;;;;;;;;;;8.39;70.51;99237.72;5042382;28;19946;-92
2021/09/05 00:42:23;;;;;;;;;;;;;;;8.40;70.62;99236.59;5025863;28;20271;-93
2021/09/05 00:44:50;;;;;;;;;;;;;;;8.36;70.54;99243.75;5042077;28;20023;-92
2021/09/05 00:47:16;;;;;;;;;;;;;;;8.32;70.71;99238.09;5043436;28;19924;-93
2021/09/05 00:49:43;;;;;;;;;;;;;;;8.28;70.35;99241.69;5041849;28;20022;-91
2021/09/05 00:52:09;;;;;;;;;;;;;;;8.36;70.61;99250.00;5041918;28;20024;-92
2021/09/05 00:54:36;;;;;;;;;;;;;;;8.31;70.23;99257.44;5042593;28;19978;-93
2021/09/05 00:57:02;;;;;;;;;;;;;;;8.27;70.69;99253.69;5045366;28;20340;-92
2021/09/05 00:59:33;;;;;;;;;;;;;;;8.27;70.69;99254.50;5061913;28;19924;-92
2021/09/05 01:02:01;;;;;;;;;;;;;;;8.19;70.33;99253.28;5062633;28;19970;-91
2021/09/05 01:04:30;;;;;;;;;;;;;;;8.26;70.63;99257.53;5078733;28;19924;-92
2021/09/05 01:06:57;;;;;;;;;;;;;;;8.24;70.23;99257.81;5026294;28;19928;-93
2021/09/05 01:09:25;;;;;;;;;;;;;;;8.22;70.14;99265.50;5041406;28;19924;-92
2021/09/05 01:11:53;;;;;;;;;;;;;;;8.24;70.49;99264.09;5041731;28;19924;-95
2021/09/05 01:14:19;;;;;;;;;;;;;;;8.28;70.45;99268.91;5041450;28;19924;-91
2021/09/05 01:16:47;;;;;;;;;;;;;;;8.31;69.91;99262.88;5041750;28;20396;-93
2021/09/05 01:19:46;;;;;;;;;;;;;;;8.24;70.29;99266.81;5024000;28;19969;-91
2021/09/05 01:22:48;;;;;;;;;;;;;;;8.22;70.60;99268.22;4997945;28;19968;-92
2021/09/05 01:25:20;;;;;;;;;;;;;;;8.20;69.82;99275.88;5035458;28;19994;-92
2021/09/05 01:27:49;;;;;;;;;;;;;;;8.15;69.93;99276.78;5042307;28;19990;-93
2021/09/05 01:30:34;;;;;;;;;;;;;;;8.18;69.42;99276.19;5044019;28;19924;-94
2021/09/05 01:33:19;;;;;;;;;;;;;;;8.18;69.41;99287.06;5044215;28;19951;-94
2021/09/05 01:36:07;;;;;;;;;;;;;;;8.19;69.31;99280.50;5038895;28;19924;-94
2021/09/05 01:38:52;;;;;;;;;;;;;;;8.19;69.49;99296.03;5043669;28;19970;-94
2021/09/05 01:41:39;;;;;;;;;;;;;;;8.16;69.73;99302.09;5044076;28;20022;-93
2021/09/05 01:44:12;;;;;;;;;;;;;;;8.11;69.98;99297.53;5057997;28;19994;-92
2021/09/05 01:46:58;;;;;;;;;;;;;;;8.08;69.53;99309.03;5067196;28;19947;-93
2021/09/05 01:49:45;;;;;;;;;;;;;;;8.09;69.78;99305.19;5063491;28;20304;-95
2021/09/05 01:52:41;;;;;;;;;;;;;;;8.06;69.28;99307.69;5016618;28;19924;-95
2021/09/05 01:55:16;;;;;;;;;;;;;;;8.04;69.38;99318.88;5071165;28;19975;-93
2021/09/05 01:58:03;;;;;;;;;;;;;;;8.02;69.50;99320.28;5040582;28;20019;-96
2021/09/05 02:00:48;;;;;;;;;;;;;;;7.99;69.56;99314.31;5040826;28;19957;-93
2021/09/05 02:03:30;;;;;;;;;;;;;;;8.03;69.33;99317.25;5057919;28;19931;-93
2021/09/05 02:06:14;;;;;;;;;;;;;;;8.07;68.84;99318.28;5040879;28;19931;-94
2021/09/05 02:08:58;;;;;;;;;;;;;;;8.01;69.07;99327.63;5061894;28;19928;-96
2021/09/05 02:11:45;;;;;;;;;;;;;;;8.06;69.23;99324.84;5043874;28;19924;-96
2021/09/05 02:14:29;;;;;;;;;;;;;;;8.03;69.02;99333.59;5040561;28;20494;-93
2021/09/05 02:17:15;;;;;;;;;;;;;;;8.13;68.84;99330.72;5022600;28;19925;-92
2021/09/05 02:20:05;;;;;;;;;;;;;;;8.10;68.74;99344.91;5074425;28;19947;-93
2021/09/05 02:22:54;;;;;;;;;;;;;;;8.13;68.73;99347.03;5040467;28;19929;-96
2021/09/05 02:25:58;;;;;;;;;;;;;;;8.04;69.08;99356.16;4985479;28;19961;-94
2021/09/05 02:28:55;;;;;;;;;;;;;;;8.09;69.51;99359.63;4997150;28;19925;-94
2021/09/05 02:31:34;;;;;;;;;;;;;;;8.17;69.64;99364.41;5050352;28;19924;-95
2021/09/05 02:34:19;;;;;;;;;;;;;;;8.19;69.72;99364.94;5042867;28;20424;-93
2021/09/05 02:37:05;;;;;;;;;;;;;;;8.27;68.95;99368.88;5055311;28;20038;-93
2021/09/05 02:39:53;;;;;;;;;;;;;;;8.12;69.41;99372.66;5043213;28;19947;-94
2021/09/05 02:42:22;;;;;;;;;;;;;;;8.15;69.95;99368.56;5040161;28;19924;-94
2021/09/05 02:45:08;;;;;;;;;;;;;;;8.17;69.59;99369.03;5042628;28;19924;-94
2021/09/05 02:48:07;;;;;;;;;;;;;;;8.22;69.81;99375.22;5022221;28;19932;-94
2021/09/05 02:50:54;;;;;;;;;;;;;;;8.22;69.47;99383.41;5053704;28;19924;-94
2021/09/05 02:53:39;;;;;;;;;;;;;;;8.16;69.51;99387.31;5075600;28;19928;-93
2021/09/05 02:56:23;;;;;;;;;;;;;;;8.24;69.65;99389.38;5039578;28;19924;-93
2021/09/05 02:59:17;;;;;;;;;;;;;;;8.18;68.23;99398.72;5042324;28;19925;-91
2021/09/05 03:02:09;;;;;;;;;;;;;;;8.20;69.02;99398.41;5060303;28;20305;-93
2021/09/05 03:05:01;;;;;;;;;;;;;;;8.27;68.45;99398.84;5039288;28;19924;-94
2021/09/05 03:07:50;;;;;;;;;;;;;;;8.27;68.39;99403.47;5034813;28;19947;-94
2021/09/05 03:10:41;;;;;;;;;;;;;;;8.24;68.72;99404.88;5042624;28;19986;-93
2021/09/05 03:13:47;;;;;;;;;;;;;;;8.21;68.62;99414.47;5061309;28;19970;-93
2021/09/05 03:16:36;;;;;;;;;;;;;;;8.22;68.11;99410.63;5042186;28;20393;-93
2021/09/05 03:19:35;;;;;;;;;;;;;;;8.21;68.46;99422.63;5072985;28;19927;-93
2021/09/05 03:22:21;;;;;;;;;;;;;;;8.26;67.47;99421.75;5021713;28;19967;-93
2021/09/05 03:25:20;;;;;;;;;;;;;;;8.28;67.41;99432.31;5052328;28;19925;-92
2021/09/05 03:28:07;;;;;;;;;;;;;;;8.33;67.22;99437.72;5054827;28;20039;-94
2021/09/05 03:31:11;;;;;;;;;;;;;;;8.33;66.72;99440.44;5031518;28;20314;-92
2021/09/05 03:34:01;;;;;;;;;;;;;;;8.38;67.23;99440.41;5023696;28;20036;-94
2021/09/05 03:36:49;;;;;;;;;;;;;;;8.28;66.61;99448.66;5034418;28;19920;-92
2021/09/05 03:39:36;;;;;;;;;;;;;;;8.17;66.92;99456.97;5043900;28;19924;-93
2021/09/05 03:42:25;;;;;;;;;;;;;;;8.19;66.75;99452.06;5068988;28;19955;-94
2021/09/05 03:45:09;;;;;;;;;;;;;;;8.18;67.09;99452.38;5067423;28;19934;-93
2021/09/05 03:47:53;;;;;;;;;;;;;;;8.23;67.70;99455.00;5041252;28;19985;-94
2021/09/05 03:50:38;;;;;;;;;;;;;;;8.20;67.64;99459.13;5055708;28;19932;-93
2021/09/05 03:53:08;;;;;;;;;;;;;;;8.21;67.51;99459.94;5039106;28;19924;-93
2021/09/05 03:55:34;;;;;;;;;;;;;;;8.19;67.50;99468.41;5038684;28;20013;-93
2021/09/05 03:58:06;;;;;;;;;;;;;;;8.21;67.58;99462.66;5035291;28;19929;-94
2021/09/05 04:00:40;;;;;;;;;;;;;;;8.17;67.41;99470.59;5032582;28;22146;-92
2021/09/05 04:03:10;;;;;;;;;;;;;;;8.29;68.35;99470.19;5055243;28;19930;-93
2021/09/05 04:05:36;;;;;;;;;;;;;;;8.30;67.53;99468.25;5064128;28;19925;-91
2021/09/05 04:10:33;;;;;;;;;;;;;;;8.12;67.33;99478.84;5037150;28;19975;-93
2021/09/05 04:13:01;;;;;;;;;;;;;;;8.05;67.17;99469.44;5035237;28;19999;-92
2021/09/05 04:15:28;;;;;;;;;;;;;;;8.04;67.46;99478.69;5019054;28;20386;-94
2021/09/05 04:17:54;;;;;;;;;;;;;;;8.05;67.57;99485.78;5035648;28;19925;-94
2021/09/05 04:20:20;;;;;;;;;;;;;;;8.16;67.90;99492.69;5043614;28;20445;-93
2021/09/05 04:22:47;;;;;;;;;;;;;;;8.23;67.43;99496.66;5071673;28;20098;-92
2021/09/05 04:25:13;;;;;;;;;;;;;;;8.38;67.61;99498.41;5055207;28;19999;-94
2021/09/05 04:27:39;;;;;;;;;;;;;;;8.39;66.75;99504.66;5055221;28;19928;-94
2021/09/05 04:30:06;;;;;;;;;;;;;;;8.45;67.42;99507.03;5071125;28;19966;-92
2021/09/05 04:32:33;;;;;;;;;;;;;;;8.52;67.27;99511.31;5054944;28;19931;-92
2021/09/05 04:35:00;;;;;;;;;;;;;;;8.58;67.23;99510.13;5091961;28;19925;-93
2021/09/05 04:37:28;;;;;;;;;;;;;;;8.55;65.77;99511.53;5034729;28;19925;-93
2021/09/05 04:39:54;;;;;;;;;;;;;;;8.62;66.62;99519.34;5051554;28;19931;-93
2021/09/05 04:42:21;;;;;;;;;;;;;;;8.59;66.19;99518.00;5018774;28;20382;-94
2021/09/05 04:44:47;;;;;;;;;;;;;;;8.63;66.27;99513.56;5035441;28;19924;-93
2021/09/05 04:47:13;;;;;;;;;;;;;;;8.78;65.41;99522.66;5018653;28;20306;-92
2021/09/05 04:49:39;;;;;;;;;;;;;;;8.91;65.03;99525.44;5034941;28;20033;-92
2021/09/05 04:52:06;;;;;;;;;;;;;;;9.01;64.32;99527.19;5018635;28;20403;-90
2021/09/05 04:54:33;;;;;;;;;;;;;;;9.10;64.99;99524.56;5019497;28;20036;-93
2021/09/05 04:57:00;;;;;;;;;;;;;;;9.00;64.80;99530.19;5019234;28;19929;-92
2021/09/05 04:59:27;;;;;;;;;;;;;;;8.97;64.60;99539.78;5015064;28;19929;-94
2021/09/05 05:01:53;;;;;;;;;;;;;;;9.00;64.92;99535.66;5010975;28;19929;-92
2021/09/05 05:04:19;;;;;;;;;;;;;;;8.92;63.43;99537.94;5018857;28;19975;-93
2021/09/05 05:06:45;;;;;;;;;;;;;;;8.78;63.59;99547.19;5018846;28;19984;-92
2021/09/05 05:09:12;;;;;;;;;;;;;;;8.73;63.81;99541.78;5041492;28;19974;-92
2021/09/05 05:11:38;;;;;;;;;;;;;;;8.64;64.23;99539.75;5046033;28;19925;-95
2021/09/05 05:14:07;;;;;;;;;;;;;;;8.69;63.67;99541.56;5002584;28;20508;-94
2021/09/05 05:16:33;;;;;;;;;;;;;;;8.72;63.41;99551.06;5002502;28;19931;-94
2021/09/05 05:19:00;;;;;;;;;;;;;;;8.73;63.34;99547.25;5018859;28;19947;-91
2021/09/05 05:21:28;;;;;;;;;;;;;;;8.90;61.92;99544.78;5002470;28;19925;-94
2021/09/05 05:23:54;;;;;;;;;;;;;;;9.03;62.71;99543.22;5034798;28;19932;-88
2021/09/05 05:26:20;;;;;;;;;;;;;;;9.26;62.69;99544.22;5035125;28;19925;-93
2021/09/05 05:28:46;;;;;;;;;;;;;;;9.47;62.57;99545.50;5034279;28;19925;-90
2021/09/05 05:31:12;;;;;;;;;;;;;;;9.52;61.40;99548.13;5067200;28;19932;-91
2021/09/05 05:33:39;;;;;;;;;;;;;;;9.56;61.94;99556.53;5023568;28;19933;-90
2021/09/05 05:36:05;;;;;;;;;;;;;;;9.51;61.64;99562.91;5037045;28;19933;-90
2021/09/05 05:38:31;;;;;;;;;;;;;;;9.47;62.48;99550.97;5037545;28;19924;-92
2021/09/05 05:40:57;;;;;;;;;;;;;;;9.56;63.28;99559.25;5054400;28;19925;-93
2021/09/05 05:43:26;;;;;;;;;;;;;;;9.54;63.28;99558.75;5008426;28;19933;-92
2021/09/05 05:45:53;;;;;;;;;;;;;;;9.62;63.04;99563.53;5002071;28;19948;-94
2021/09/05 05:48:20;;;;;;;;;;;;;;;9.75;63.04;99561.94;5016822;28;19931;-88
2021/09/05 05:50:47;;;;;;;;;;;;;;;9.80;63.24;99573.56;5034228;28;20376;-89
2021/09/05 05:53:14;;;;;;;;;;;;;;;9.70;62.36;99570.19;5073506;28;19925;-89
2021/09/05 05:55:40;;;;;;;;;;;;;;;9.58;63.29;99579.69;5037130;28;20027;-88
2021/09/05 05:58:06;;;;;;;;;;;;;;;9.56;62.65;99583.81;5075064;28;19925;-88
2021/09/05 06:00:33;;;;;;;;;;;;;;;9.60;63.85;99577.47;5036231;28;19925;-88
2021/09/05 06:02:58;;;;;;;;;;;;;;;9.53;62.63;99582.50;5040494;28;20587;-88
2021/09/05 06:05:24;;;;;;;;;;;;;;;9.51;63.50;99590.19;5071882;28;19928;-89
2021/09/05 06:07:50;;;;;;;;;;;;;;;9.50;63.60;99593.19;5052692;28;19924;-89
2021/09/05 06:10:16;;;;;;;;;;;;;;;9.47;64.05;99591.06;5036224;28;19925;-89
2021/09/05 06:12:42;;;;;;;;;;;;;;;9.54;63.33;99596.97;5049306;28;19948;-88
2021/09/05 06:15:08;;;;;;;;;;;;;;;9.47;64.69;99602.81;5032929;28;20490;-88
2021/09/05 06:17:35;;;;;;;;;;;;;;;9.56;65.88;99603.72;5052474;28;19924;-89
2021/09/05 06:20:01;;;;;;;;;;;;;;;9.59;65.76;99603.13;5052744;28;19986;-88
2021/09/05 06:22:27;;;;;;;;;;;;;;;9.70;66.09;99609.25;5053676;28;20492;-88
2021/09/05 06:24:53;;;;;;;;;;;;;;;9.86;66.99;99615.22;5033339;28;19921;-88
2021/09/05 06:27:18;;;;;;;;;;;;;;;10.09;67.64;99611.50;5047101;28;19936;-88
2021/09/05 06:29:44;;;;;;;;;;;;;;;10.21;64.58;99618.41;5053881;28;19970;-88
2021/09/05 06:32:10;;;;;;;;;;;;;;;10.16;65.25;99623.97;5052375;28;19921;-89
2021/09/05 06:34:36;;;;;;;;;;;;;;;10.28;63.14;99613.38;5042446;28;20394;-89
2021/09/05 06:37:03;;;;;;;;;;;;;;;10.08;63.62;99617.28;5042744;28;20007;-89
2021/09/05 06:39:28;;;;;;;;;;;;;;;10.12;63.82;99621.03;5028995;28;20029;-87
2021/09/05 06:41:54;;;;;;;;;;;;;;;10.32;65.17;99625.31;5011812;28;19929;-87
2021/09/05 06:44:21;;;;;;;;;;;;;;;10.47;63.76;99625.03;5046677;28;19936;-87
2021/09/05 06:46:47;;;;;;;;;;;;;;;10.61;63.00;99637.88;5068818;28;20378;-88
2021/09/05 06:49:13;;;;;;;;;;;;;;;10.56;62.21;99639.59;5033942;28;19931;-87
2021/09/05 06:51:39;;;;;;;;;;;;;;;10.63;62.64;99639.19;5051552;28;19929;-88
2021/09/05 06:54:04;;;;;;;;;;;;;;;10.69;62.82;99643.41;5021832;28;19925;-86
2021/09/05 06:56:30;;;;;;;;;;;;;;;10.54;60.52;99633.63;5010446;28;19988;-86
2021/09/05 06:58:56;;;;;;;;;;;;;;;10.44;60.87;99639.31;5082131;28;20286;-88
2021/09/05 07:01:22;;;;;;;;;;;;;;;10.50;61.61;99642.75;5032589;28;20027;-86
2021/09/05 07:03:49;;;;;;;;;;;;;;;10.49;61.06;99647.38;5029829;28;20274;-85
2021/09/05 07:06:16;;;;;;;;;;;;;;;10.42;60.81;99652.44;5032091;28;19925;-87
2021/09/05 07:08:43;;;;;;;;;;;;;;;10.38;60.64;99664.28;5034162;28;20024;-87
2021/09/05 07:11:11;;;;;;;;;;;;;;;10.50;60.40;99670.06;5032725;28;20306;-86
2021/09/05 07:13:36;;;;;;;;;;;;;;;10.37;59.23;99676.34;5075225;28;19951;-86
2021/09/05 07:16:03;;;;;;;;;;;;;;;10.37;61.85;99681.81;5033731;28;19932;-87
2021/09/05 07:18:28;;;;;;;;;;;;;;;10.20;60.75;99680.44;5009176;28;20405;-87
2021/09/05 07:20:54;;;;;;;;;;;;;;;10.28;62.05;99685.22;5041368;28;20012;-86
2021/09/05 07:23:20;;;;;;;;;;;;;;;10.35;61.15;99688.38;5032470;28;19921;-87
2021/09/05 07:25:46;;;;;;;;;;;;;;;10.49;61.74;99702.03;5036580;28;19925;-83
2021/09/05 07:28:12;;;;;;;;;;;;;;;10.35;61.74;99693.84;5026911;28;19932;-79
2021/09/05 07:30:39;;;;;;;;;;;;;;;10.20;62.14;99705.03;5023249;28;19931;-77
2021/09/05 07:33:05;;;;;;;;;;;;;;;10.19;62.96;99703.41;5026592;28;20394;-78
2021/09/05 07:35:30;;;;;;;;;;;;;;;10.07;62.67;99717.56;5026177;28;19925;-79
2021/09/05 07:37:56;;;;;;;;;;;;;;;10.23;62.42;99715.38;5026034;28;19925;-79
2021/09/05 07:40:25;;;;;;;;;;;;;;;10.17;62.31;99711.09;5025517;28;19982;-80
2021/09/05 07:42:50;;;;;;;;;;;;;;;10.00;61.97;99721.75;5026851;28;19937;-79
2021/09/05 07:45:16;;;;;;;;;;;;;;;10.07;62.46;99724.94;5046202;28;20627;-80
2021/09/05 07:47:42;;;;;;;;;;;;;;;10.05;63.11;99730.69;5037349;28;19932;-80
2021/09/05 07:50:08;;;;;;;;;;;;;;;9.98;62.82;99730.25;5026135;28;20294;-80
2021/09/05 07:52:34;;;;;;;;;;;;;;;9.90;63.30;99736.41;5025185;28;20279;-80
2021/09/05 07:55:03;;;;;;;;;;;;;;;9.72;62.99;99742.72;5028066;28;19925;-84
2021/09/05 07:57:28;;;;;;;;;;;;;;;10.02;67.01;99744.13;5032342;28;19928;-80
2021/09/05 07:59:54;;;;;;;;;;;;;;;9.93;61.99;99754.09;5050717;28;19931;-80
2021/09/05 08:02:20;;;;;;;;;;;;;;;9.82;63.10;99748.81;5052816;28;19925;-83
2021/09/05 08:04:46;;;;;;;;;;;;;;;9.76;62.64;99749.19;5065350;28;19924;-79
2021/09/05 08:07:12;;;;;;;;;;;;;;;9.82;63.35;99758.94;5048023;28;19935;-78
2021/09/05 08:09:39;;;;;;;;;;;;;;;9.78;63.93;99763.38;5066565;28;19928;-81
2021/09/05 08:12:05;;;;;;;;;;;;;;;9.69;64.54;99762.41;5063446;28;20352;-80
2021/09/05 08:14:33;;;;;;;;;;;;;;;9.66;65.25;99766.53;5062825;28;19924;-81
2021/09/05 08:16:58;;;;;;;;;;;;;;;9.83;67.83;99768.72;5063271;28;20019;-79
2021/09/05 08:19:24;;;;;;;;;;;;;;;10.11;68.12;99773.19;5066173;28;20468;-88
2021/09/05 08:21:50;;;;;;;;;;;;;;;10.49;66.79;99780.50;5065315;28;20004;-88
2021/09/05 08:24:19;;;;;;;;;;;;;;;10.79;65.06;99779.97;5030052;28;19924;-90
2021/09/05 08:26:45;;;;;;;;;;;;;;;10.75;61.85;99780.84;5085387;28;19946;-88
2021/09/05 08:29:11;;;;;;;;;;;;;;;10.97;61.46;99780.16;5064226;28;19924;-89
2021/09/05 08:31:37;;;;;;;;;;;;;;;10.97;59.95;99786.44;5046857;28;20083;-88
2021/09/05 08:34:03;;;;;;;;;;;;;;;11.09;61.43;99776.91;5051317;28;19924;-87
2021/09/05 08:36:30;;;;;;;;;;;;;;;11.19;60.52;99787.63;5073515;28;19924;-81
2021/09/05 08:38:57;;;;;;;;;;;;;;;11.26;58.80;99788.06;5066515;28;19933;-87
2021/09/05 08:41:24;;;;;;;;;;;;;;;10.93;59.46;99798.31;5066446;28;20275;-90
2021/09/05 08:43:50;;;;;;;;;;;;;;;10.90;60.97;99785.22;5067255;28;19928;-88
2021/09/05 08:46:16;;;;;;;;;;;;;;;11.02;58.80;99796.47;5053907;28;19977;-85
2021/09/05 08:48:42;;;;;;;;;;;;;;;11.10;59.89;99795.75;5055546;28;19924;-91
2021/09/05 08:51:08;;;;;;;;;;;;;;;11.22;58.01;99801.50;5066815;28;19925;-86
2021/09/05 08:53:35;;;;;;;;;;;;;;;11.48;57.85;99799.06;5067649;28;19939;-80
2021/09/05 08:56:01;;;;;;;;;;;;;;;11.46;57.95;99795.84;5066415;28;20370;-88
2021/09/05 08:58:28;;;;;;;;;;;;;;;11.23;58.20;99799.63;5065435;28;20324;-86
2021/09/05 09:00:54;;;;;;;;;;;;;;;10.93;57.49;99804.59;5048138;28;19931;-87
2021/09/05 09:03:23;;;;;;;;;;;;;;;10.71;58.47;99807.19;5048824;28;19930;-87
2021/09/05 09:05:53;;;;;;;;;;;;;;;10.69;59.10;99802.00;5049912;28;19935;-90
2021/09/05 09:08:20;;;;;;;;;;;;;;;10.58;59.16;99820.53;5069365;28;20401;-88
2021/09/05 09:10:51;;;;;;;;;;;;;;;10.73;59.30;99813.97;5050143;28;20017;-92
2021/09/05 09:13:27;;;;;;;;;;;;;;;10.84;61.44;99813.78;5069274;28;19931;-88
2021/09/05 09:15:54;;;;;;;;;;;;;;;10.86;58.06;99808.81;5063169;28;19924;-88
2021/09/05 09:18:28;;;;;;;;;;;;;;;10.77;57.84;99806.78;5064059;28;20679;-88
2021/09/05 09:20:56;;;;;;;;;;;;;;;10.71;57.66;99809.91;5045402;28;19933;-90
2021/09/05 09:23:23;;;;;;;;;;;;;;;10.62;58.44;99807.06;5063485;28;20476;-90
2021/09/05 09:25:51;;;;;;;;;;;;;;;10.78;58.77;99810.31;5047549;28;19978;-90
2021/09/05 09:28:26;;;;;;;;;;;;;;;10.91;59.03;99812.28;5044319;28;19929;-90
2021/09/05 09:30:54;;;;;;;;;;;;;;;10.99;58.11;99811.56;5066958;28;20132;-86
2021/09/05 09:33:24;;;;;;;;;;;;;;;11.01;57.63;99820.28;5059210;28;20889;-88
2021/09/05 09:35:58;;;;;;;;;;;;;;;11.12;58.50;99818.16;5026560;28;19958;-88
2021/09/05 09:38:25;;;;;;;;;;;;;;;11.12;58.11;99814.59;5047555;28;20726;-86
2021/09/05 09:41:04;;;;;;;;;;;;;;;11.18;59.10;99814.19;5067582;28;19924;-85
2021/09/05 09:43:46;;;;;;;;;;;;;;;11.10;58.28;99820.38;5073299;28;19924;-93
2021/09/05 09:46:16;;;;;;;;;;;;;;;11.03;58.08;99817.25;5059401;28;19924;-92
2021/09/05 09:52:00;;;;;;;;;;;;;;;10.61;57.69;99837.44;5031254;28;20026;-94
2021/09/05 10:02:29;;;;;;;;;;;;;;;10.61;58.71;99845.66;4919107;29;19933;-93
2021/09/05 10:05:00;;;;;;;;;;;;;;;10.43;58.86;99834.47;4907957;29;19927;-91
2021/09/05 10:07:29;;;;;;;;;;;;;;;10.41;59.24;99842.16;4906942;29;19927;-92
2021/09/05 10:10:03;;;;;;;;;;;;;;;10.48;58.51;99842.56;4876523;29;19943;-93
2021/09/05 10:12:35;;;;;;;;;;;;;;;10.53;58.56;99839.75;4902188;29;19989;-90
2021/09/05 10:15:03;;;;;;;;;;;;;;;10.67;57.51;99848.00;4904231;29;20407;-84
2021/09/05 10:17:30;;;;;;;;;;;;;;;10.77;56.08;99842.34;4901894;29;20349;-85
2021/09/05 10:20:01;;;;;;;;;;;;;;;10.87;57.82;99837.81;4901779;29;20446;-85
2021/09/05 10:22:32;;;;;;;;;;;;;;;11.11;55.90;99838.41;4917199;29;20412;-87
2021/09/05 10:25:00;;;;;;;;;;;;;;;11.18;54.22;99833.34;4917398;29;19930;-87
2021/09/05 10:27:29;;;;;;;;;;;;;;;11.44;54.09;99830.09;4916879;29;20013;-86
2021/09/05 10:30:07;;;;;;;;;;;;;;;11.62;56.69;99834.66;4917160;29;20816;-86
2021/09/05 10:32:42;;;;;;;;;;;;;;;11.60;55.50;99836.06;4919221;29;19927;-87
2021/09/05 10:35:28;;;;;;;;;;;;;;;11.57;53.21;99832.00;4928194;28;19985;-86
2021/09/05 10:38:10;;;;;;;;;;;;;;;11.38;53.27;99847.75;4981748;28;19979;-86
2021/09/05 10:40:41;;;;;;;;;;;;;;;11.16;55.15;99841.06;5034744;28;20417;-87
2021/09/05 10:43:08;;;;;;;;;;;;;;;11.02;55.22;99846.50;5044910;28;20394;-85
2021/09/05 10:45:48;;;;;;;;;;;;;;;10.78;56.35;99846.69;5033518;28;20750;-86
2021/09/05 10:48:30;;;;;;;;;;;;;;;10.74;56.80;99848.41;5033582;28;20305;-86
2021/09/05 10:51:14;;;;;;;;;;;;;;;10.78;57.27;99845.88;5036574;28;20100;-87
2021/09/05 10:53:48;;;;;;;;;;;;;;;10.84;57.90;99846.59;5027313;28;20027;-86
2021/09/05 10:56:15;;;;;;;;;;;;;;;10.99;57.68;99847.16;5031400;28;19928;-85
2021/09/05 10:58:42;;;;;;;;;;;;;;;11.07;57.18;99845.63;5064434;28;19925;-85
2021/09/05 11:01:09;;;;;;;;;;;;;;;11.25;56.58;99844.69;5032370;28;20783;-86
2021/09/05 11:03:55;;;;;;;;;;;;;;;11.29;56.08;99842.16;5041787;28;20131;-86
2021/09/05 11:06:33;;;;;;;;;;;;;;;11.44;56.08;99843.78;5033827;28;19925;-87
2021/09/05 11:09:25;;;;;;;;;;;;;;;11.57;54.79;99833.94;5030700;28;20317;-87
2021/09/05 11:11:58;;;;;;;;;;;;;;;11.66;55.01;99837.59;5026001;28;19955;-86
2021/09/05 11:14:37;;;;;;;;;;;;;;;11.65;52.84;99835.94;5023886;28;19951;-83
2021/09/05 11:17:08;;;;;;;;;;;;;;;11.73;54.49;99835.22;5030940;28;19963;-87
2021/09/05 11:19:50;;;;;;;;;;;;;;;11.80;55.22;99834.81;5028417;28;20309;-85
2021/09/05 11:22:28;;;;;;;;;;;;;;;11.91;54.16;99834.28;5029883;28;19951;-89
2021/09/05 11:25:04;;;;;;;;;;;;;;;11.85;54.88;99841.00;5026553;28;20065;-80
2021/09/05 11:27:31;;;;;;;;;;;;;;;11.82;54.45;99827.06;5028160;28;19939;-80
2021/09/05 11:30:05;;;;;;;;;;;;;;;12.07;53.51;99828.47;5028531;28;19925;-80
2021/09/05 11:32:32;;;;;;;;;;;;;;;12.02;53.02;99823.09;5028494;28;20336;-80
2021/09/05 11:35:01;;;;;;;;;;;;;;;12.22;52.59;99847.28;5028755;28;19948;-93
2021/09/05 11:37:31;;;;;;;;;;;;;;;12.29;53.23;99833.97;5032338;28;20799;-88
2021/09/05 11:40:03;;;;;;;;;;;;;;;12.26;51.33;99839.25;5033305;28;19924;-87
2021/09/05 11:42:29;;;;;;;;;;;;;;;12.19;51.48;99845.16;5052777;28;20019;-90
2021/09/05 11:45:00;;;;;;;;;;;;;;;12.16;51.95;99843.84;5033165;28;20321;-89
2021/09/05 11:47:26;;;;;;;;;;;;;;;12.01;51.78;99848.88;5032667;28;19929;-88
2021/09/05 11:49:53;;;;;;;;;;;;;;;11.96;53.67;99839.66;5032962;28;20022;-88
2021/09/05 11:52:22;;;;;;;;;;;;;;;11.91;53.32;99842.50;5049970;28;19932;-88
2021/09/05 11:54:59;;;;;;;;;;;;;;;11.89;53.20;99833.81;5049780;28;19936;-88
2021/09/05 11:57:26;;;;;;;;;;;;;;;11.92;53.31;99838.66;5048687;28;20416;-88
2021/09/05 11:59:52;;;;;;;;;;;;;;;11.96;52.61;99834.19;5071343;28;20437;-89
2021/09/05 12:02:32;;;;;;;;;;;;;;;11.97;51.40;99844.00;5053336;28;19925;-88
2021/09/05 12:04:59;;;;;;;;;;;;;;;12.15;52.44;99833.19;5052825;28;19924;-87
2021/09/05 12:07:26;;;;;;;;;;;;;;;12.34;50.85;99836.56;5052690;28;19929;-87
2021/09/05 12:10:10;;;;;;;;;;;;;;;12.60;50.28;99838.66;5052326;28;20340;-89
2021/09/05 12:12:39;;;;;;;;;;;;;;;12.85;50.14;99827.03;5053199;28;20041;-87
2021/09/05 12:15:14;;;;;;;;;;;;;;;12.80;50.23;99834.59;5053003;28;20043;-88
2021/09/05 12:17:43;;;;;;;;;;;;;;;12.97;49.16;99826.44;5052819;28;19925;-88
2021/09/05 12:20:09;;;;;;;;;;;;;;;12.85;48.61;99828.97;5053164;28;20063;-90
2021/09/05 12:22:42;;;;;;;;;;;;;;;12.75;47.85;99841.03;5070847;28;19929;-88
2021/09/05 12:25:12;;;;;;;;;;;;;;;12.85;49.56;99829.78;5035880;28;19924;-90
2021/09/05 12:27:37;;;;;;;;;;;;;;;12.77;47.65;99833.28;5036403;28;19924;-88
2021/09/05 12:30:25;;;;;;;;;;;;;;;12.86;48.74;99834.13;5087081;28;19924;-88
2021/09/05 12:33:11;;;;;;;;;;;;;;;12.98;48.32;99839.03;5070409;28;20095;-90
2021/09/05 12:35:39;;;;;;;;;;;;;;;12.95;48.07;99845.16;5071577;28;19924;-89
2021/09/05 12:38:16;;;;;;;;;;;;;;;12.98;48.09;99829.97;5053689;28;20023;-88
2021/09/05 12:40:45;;;;;;;;;;;;;;;12.86;46.97;99831.38;5037646;28;20416;-88
2021/09/05 12:43:12;;;;;;;;;;;;;;;12.79;47.12;99833.78;5076057;28;19924;-89
2021/09/05 12:45:51;;;;;;;;;;;;;;;12.84;47.10;99841.84;5061630;28;20381;-89
2021/09/05 12:48:21;;;;;;;;;;;;;;;12.95;48.58;99836.94;5048163;28;19936;-89
2021/09/05 12:51:04;;;;;;;;;;;;;;;13.11;47.31;99829.91;5053260;28;21279;-88
2021/09/05 12:53:33;;;;;;;;;;;;;;;13.25;47.74;99840.78;5051980;28;19927;-89
2021/09/05 12:55:59;;;;;;;;;;;;;;;13.24;47.96;99830.91;5069992;28;19929;-89
2021/09/05 12:58:26;;;;;;;;;;;;;;;13.30;48.14;99843.38;5032330;28;19948;-88
2021/09/05 13:00:53;;;;;;;;;;;;;;;13.42;48.14;99841.97;5049478;28;19932;-91
2021/09/05 13:03:19;;;;;;;;;;;;;;;13.38;46.74;99837.13;5050108;28;19929;-81
2021/09/05 13:05:48;;;;;;;;;;;;;;;13.37;48.46;99837.41;5050997;28;19925;-81
2021/09/05 13:08:14;;;;;;;;;;;;;;;13.25;47.88;99850.97;5051330;28;19931;-82
2021/09/05 13:10:40;;;;;;;;;;;;;;;13.25;48.22;99840.00;5051142;28;20024;-81
2021/09/05 13:13:06;;;;;;;;;;;;;;;13.32;48.15;99838.38;5051346;28;19925;-82
2021/09/05 13:15:36;;;;;;;;;;;;;;;13.34;49.41;99846.28;5050912;28;19951;-81
2021/09/05 13:18:02;;;;;;;;;;;;;;;13.18;47.79;99848.66;5051217;28;19928;-81
2021/09/05 13:20:29;;;;;;;;;;;;;;;13.16;49.34;99848.16;5051066;28;19924;-81
2021/09/05 13:22:58;;;;;;;;;;;;;;;13.01;48.53;99859.53;5054018;28;19927;-81
2021/09/05 13:25:26;;;;;;;;;;;;;;;12.79;50.04;99866.69;5054312;28;19951;-81
2021/09/05 13:27:56;;;;;;;;;;;;;;;12.69;50.75;99869.72;5054293;28;20357;-85
2021/09/05 13:30:24;;;;;;;;;;;;;;;12.52;50.71;99866.88;5053224;28;19927;-88